TimeBST,TemperatureF,Dew PointF,Humidity,Sea Level PressureIn,VisibilityMPH,Wind Direction,Wind SpeedMPH,Gust SpeedMPH,PrecipitationIn,Events,Conditions,WindDirDegrees,DateUTC
12:50 AM,59,56,87,30.12,16,WNW,6.9,,,,Partly Cloudy,290,2013-06-28 23:50:00
12:50 AM,59.0,55.4,88,30.09,6.2,WNW,6.9,-,N/A,,Mostly Cloudy,290,2013-06-28 23:50:00
1:50 AM,57.2,55.4,94,30.12,6.2,West,4.6,-,N/A,,Mostly Cloudy,280,2013-06-29 00:50:00
2:50 AM,57.2,55.4,94,30.12,6.2,West,4.6,-,N/A,,Mostly Cloudy,270,2013-06-29 01:50:00
3:50 AM,56,52,83,30.15,16,NW,10.4,,,,Partly Cloudy,320,2013-06-29 02:50:00
3:50 AM,57.2,51.8,82,30.12,6.2,NW,10.4,-,N/A,,Mostly Cloudy,320,2013-06-29 02:50:00
4:50 AM,55.4,50.0,82,30.15,6.2,NW,8.1,-,N/A,,Mostly Cloudy,320,2013-06-29 03:50:00
5:50 AM,53.6,46.4,77,30.15,6.2,NNW,10.4,-,N/A,,Mostly Cloudy,330,2013-06-29 04:50:00
6:50 AM,55,47,67,30.19,19,NNW,8.1,,,,Scattered Clouds,330,2013-06-29 05:50:00
6:50 AM,55.4,46.4,72,30.18,6.2,NNW,8.1,-,N/A,,Mostly Cloudy,330,2013-06-29 05:50:00
7:50 AM,55.4,48.2,77,30.21,6.2,NNW,10.4,-,N/A,,Mostly Cloudy,330,2013-06-29 06:50:00
8:50 AM,57.2,48.2,72,30.21,6.2,NNW,11.5,-,N/A,,Mostly Cloudy,340,2013-06-29 07:50:00
9:50 AM,59,48,59,30.24,19,NW,10.4,,,,Scattered Clouds,320,2013-06-29 08:50:00
9:50 AM,59.0,48.2,67,30.24,6.2,NW,10.4,-,N/A,,Mostly Cloudy,320,2013-06-29 08:50:00
10:50 AM,60.8,48.2,63,30.24,6.2,NW,9.2,-,N/A,,Mostly Cloudy,320,2013-06-29 09:50:00
11:50 AM,62.6,48.2,59,30.24,6.2,NW,9.2,-,N/A,,Mostly Cloudy,320,2013-06-29 10:50:00
12:50 PM,64,47,44,30.25,22,NW,8.1,,,,Scattered Clouds,310,2013-06-29 11:50:00
12:50 PM,64.4,48.2,56,30.24,6.2,NW,8.1,19.6,N/A,,Mostly Cloudy,310,2013-06-29 11:50:00
1:50 PM,66.2,50.0,56,30.24,6.2,WNW,8.1,-,N/A,,Mostly Cloudy,290,2013-06-29 12:50:00
2:50 PM,68.0,48.2,49,30.24,6.2,WNW,8.1,-,N/A,,Scattered Clouds,290,2013-06-29 13:50:00
3:50 PM,69,46,32,30.24,19,NW,9.2,,,,Scattered Clouds,310,2013-06-29 14:50:00
3:50 PM,69.8,46.4,43,30.24,6.2,NW,9.2,-,N/A,,Scattered Clouds,310,2013-06-29 14:50:00
4:50 PM,69.8,48.2,46,30.24,6.2,West,6.9,-,N/A,,Scattered Clouds,280,2013-06-29 15:50:00
5:50 PM,71.6,50.0,46,30.21,-9999.0,West,8.1,-,N/A,,Clear,270,2013-06-29 16:50:00
6:50 PM,70,53,44,30.23,25,West,6.9,,,,Scattered Clouds,270,2013-06-29 17:50:00
6:50 PM,69.8,53.6,56,30.21,-9999.0,West,6.9,-,N/A,,Clear,270,2013-06-29 17:50:00
7:50 PM,68.0,57.2,68,30.24,-9999.0,WSW,5.8,-,N/A,,Clear,250,2013-06-29 18:50:00
8:50 PM,66.2,59.0,78,30.24,-9999.0,WSW,5.8,-,N/A,,Clear,240,2013-06-29 19:50:00
9:50 PM,65,56,66,30.26,16,West,3.5,,,,Mostly Cloudy,260,2013-06-29 20:50:00
9:50 PM,66.2,57.2,73,30.24,6.2,West,3.5,-,N/A,,Mostly Cloudy,260,2013-06-29 20:50:00
10:50 PM,64.4,57.2,77,30.27,6.2,WSW,3.5,-,N/A,,Mostly Cloudy,240,2013-06-29 21:50:00
11:50 PM,62.6,57.2,82,30.24,-9999.0,West,2.3,-,N/A,,Clear,270,2013-06-29 22:50:00